Time;durP1;ratioP1;P1;durP2;ratioP2;P2;SDS_P1;SDS_P2;PMS_P1;PMS_P2;Temp;Humidity;BMP_temperature;BMP_pressure;BME280_temperature;BME280_humidity;BME280_pressure;Samples;Min_cycle;Max_cycle;Signal;HPM_P1;HPM_P2
2022/04/24 00:02:02;;;;;;;33.53;19.98;;;;;;;9.15;100.00;99533.81;1702085;84;21267;-84
2022/04/24 00:05:10;;;;;;;36.50;21.65;;;;;;;9.11;100.00;99528.40;1701031;84;21216;-84
2022/04/24 00:08:17;;;;;;;31.50;20.70;;;;;;;9.08;100.00;99527.39;1700988;84;21215;-84
2022/04/24 00:11:25;;;;;;;32.58;19.27;;;;;;;9.04;100.00;99528.83;1701004;84;21172;-84
2022/04/24 00:14:31;;;;;;;30.45;19.25;;;;;;;9.00;100.00;99528.86;1701370;84;21795;-84
2022/04/24 00:17:38;;;;;;;25.02;18.65;;;;;;;8.96;100.00;99530.59;1701732;84;21215;-83
2022/04/24 00:20:44;;;;;;;26.65;17.15;;;;;;;8.92;100.00;99526.52;1701031;84;21784;-84
2022/04/24 00:23:49;;;;;;;23.55;18.00;;;;;;;8.90;100.00;99523.15;1700961;84;21228;-84
2022/04/24 00:26:57;;;;;;;23.83;17.37;;;;;;;8.89;100.00;99520.59;1702333;84;21220;-84
2022/04/24 00:30:03;;;;;;;22.50;15.90;;;;;;;8.85;100.00;99511.95;1701094;83;21200;-84
2022/04/24 00:33:09;;;;;;;26.40;17.65;;;;;;;8.83;100.00;99511.79;1701488;84;21254;-84
2022/04/24 00:36:15;;;;;;;21.02;16.17;;;;;;;8.79;100.00;99522.20;1701623;83;21183;-84
2022/04/24 00:39:21;;;;;;;24.15;16.73;;;;;;;8.76;100.00;99523.96;1702310;84;21188;-83
2022/04/24 00:42:27;;;;;;;22.45;15.25;;;;;;;8.73;100.00;99527.05;1701377;84;21244;-84
2022/04/24 00:45:33;;;;;;;22.85;15.88;;;;;;;8.69;100.00;99525.71;1701148;84;21777;-83
2022/04/24 00:48:25;;;;;;;24.75;15.25;;;;;;;8.64;100.00;99526.78;1701171;84;21812;-84
2022/04/24 00:51:33;;;;;;;24.23;17.45;;;;;;;8.59;100.00;99525.12;1701041;83;21239;-83
2022/04/24 00:54:38;;;;;;;22.05;16.45;;;;;;;8.54;100.00;99525.66;1701864;84;21183;-83
2022/04/24 00:57:44;;;;;;;31.00;19.95;;;;;;;8.53;100.00;99527.22;1701726;84;21243;-83
2022/04/24 01:00:52;;;;;;;38.58;22.45;;;;;;;8.54;100.00;99519.37;1701017;84;21215;-83
2022/04/24 01:04:02;;;;;;;38.67;25.88;;;;;;;8.58;100.00;99517.98;1702187;84;21524;-83
2022/04/24 01:07:10;;;;;;;48.38;28.40;;;;;;;8.61;100.00;99517.59;1701283;83;21211;-84
2022/04/24 01:10:16;;;;;;;53.65;30.32;;;;;;;8.66;100.00;99519.28;1701123;84;21192;-83
2022/04/24 01:13:22;;;;;;;69.97;35.73;;;;;;;8.70;100.00;99504.22;1701308;84;21761;-83
2022/04/24 01:16:29;;;;;;;63.98;33.53;;;;;;;8.74;100.00;99500.10;1702291;84;21634;-83
2022/04/24 01:19:35;;;;;;;74.12;35.78;;;;;;;8.77;100.00;99498.90;1702380;84;21744;-83
2022/04/24 01:22:41;;;;;;;82.90;43.87;;;;;;;8.79;100.00;99498.19;1701244;84;21196;-83
2022/04/24 01:25:49;;;;;;;96.92;46.20;;;;;;;8.79;100.00;99502.28;1701488;84;21199;-83
2022/04/24 01:28:55;;;;;;;115.42;49.63;;;;;;;8.81;100.00;99487.44;1701206;83;21770;-83
2022/04/24 01:32:01;;;;;;;106.92;40.92;;;;;;;8.83;100.00;99492.18;1702358;84;21220;-85
2022/04/24 01:35:13;;;;;;;80.60;40.63;;;;;;;8.84;100.00;99481.59;1701927;84;21191;-85
2022/04/24 01:38:08;;;;;;;83.58;40.85;;;;;;;8.84;100.00;99476.14;1701099;84;21252;-84
2022/04/24 01:41:14;;;;;;;76.22;38.65;;;;;;;8.86;100.00;99468.64;1701183;84;21187;-85
2022/04/24 01:44:19;;;;;;;77.45;37.73;;;;;;;8.89;100.00;99469.64;1693659;83;21224;-84
2022/04/24 01:47:26;;;;;;;63.13;34.45;;;;;;;8.93;100.00;99466.84;1689258;85;21798;-84
2022/04/24 01:50:32;;;;;;;67.55;35.52;;;;;;;8.94;100.00;99469.93;1689242;85;21844;-84
2022/04/24 01:53:39;;;;;;;70.30;35.98;;;;;;;8.98;100.00;99469.53;1687911;85;21220;-83
2022/04/24 01:56:45;;;;;;;66.55;34.35;;;;;;;9.00;100.00;99475.67;1687931;85;21292;-83
2022/04/24 01:59:51;;;;;;;60.23;35.23;;;;;;;9.02;100.00;99481.77;1688894;85;21181;-84
2022/04/24 02:03:00;;;;;;;68.72;38.10;;;;;;;9.00;100.00;99474.31;1688271;85;21240;-84
2022/04/24 02:06:08;;;;;;;67.62;37.10;;;;;;;8.99;100.00;99471.22;1688310;85;21222;-83
2022/04/24 02:09:14;;;;;;;52.50;30.92;;;;;;;8.99;100.00;99472.59;1687933;85;21193;-84
2022/04/24 02:12:20;;;;;;;51.37;30.62;;;;;;;8.98;100.00;99470.91;1688756;85;21235;-83
2022/04/24 02:15:28;;;;;;;45.05;27.55;;;;;;;8.96;100.00;99456.09;1688809;85;21188;-81
2022/04/24 02:18:35;;;;;;;47.80;27.07;;;;;;;8.96;100.00;99451.48;1687861;85;21220;-77
2022/04/24 02:21:40;;;;;;;36.30;22.40;;;;;;;8.98;100.00;99454.53;1689140;85;21189;-84
2022/04/24 02:24:45;;;;;;;33.18;21.75;;;;;;;8.98;100.00;99453.17;1689104;85;21181;-80
2022/04/24 02:27:56;;;;;;;27.30;20.05;;;;;;;8.99;100.00;99445.31;1687790;85;21225;-77
2022/04/24 02:31:01;;;;;;;19.15;14.65;;;;;;;8.98;100.00;99443.63;1689046;85;21217;-78
2022/04/24 02:34:08;;;;;;;22.00;15.75;;;;;;;8.97;100.00;99442.78;1689022;85;21690;-77
2022/04/24 02:37:15;;;;;;;15.98;13.50;;;;;;;8.95;100.00;99433.44;1687657;85;21809;-78
2022/04/24 02:40:21;;;;;;;19.40;14.50;;;;;;;8.93;100.00;99440.94;1687670;85;21220;-78
2022/04/24 02:43:27;;;;;;;20.17;14.07;;;;;;;8.93;100.00;99446.39;1687895;85;21232;-77
2022/04/24 02:46:33;;;;;;;15.98;13.38;;;;;;;8.92;100.00;99441.98;1687731;85;21208;-77
2022/04/24 02:49:40;;;;;;;15.15;12.28;;;;;;;8.92;100.00;99447.44;1687684;85;21787;-78
2022/04/24 02:52:55;;;;;;;17.65;12.65;;;;;;;8.92;100.00;99441.98;1688502;85;21736;-78
2022/04/24 02:55:53;;;;;;;14.65;12.63;;;;;;;8.94;100.00;99443.17;1689012;85;21164;-78
2022/04/24 02:58:48;;;;;;;18.02;13.78;;;;;;;8.93;100.00;99443.66;1688466;85;21244;-78
2022/04/24 03:01:36;;;;;;;19.05;12.60;;;;;;;8.94;100.00;99460.91;1687805;85;21766;-77
2022/04/24 03:04:42;;;;;;;16.70;12.07;;;;;;;8.94;100.00;99465.84;1687734;85;21169;-77
2022/04/24 03:07:49;;;;;;;16.55;12.10;;;;;;;8.94;100.00;99460.91;1687810;85;21228;-76
2022/04/24 03:10:56;;;;;;;19.20;12.95;;;;;;;8.89;100.00;99456.01;1689006;85;21236;-77
2022/04/24 03:14:00;;;;;;;18.82;13.65;;;;;;;8.86;100.00;99455.00;1687820;85;21180;-77
2022/04/24 03:17:07;;;;;;;17.45;12.70;;;;;;;8.81;100.00;99456.08;1688291;85;21248;-77
2022/04/24 03:20:18;;;;;;;18.10;12.75;;;;;;;8.80;100.00;99459.84;1688996;85;21203;-78
2022/04/24 03:23:25;;;;;;;21.40;13.58;;;;;;;8.80;100.00;99457.61;1688963;85;21333;-77
2022/04/24 03:26:31;;;;;;;16.55;11.95;;;;;;;8.80;100.00;99467.16;1688712;85;21860;-78
2022/04/24 03:29:37;;;;;;;18.32;12.58;;;;;;;8.80;100.00;99462.58;1689031;85;21240;-78
2022/04/24 03:32:44;;;;;;;15.25;11.93;;;;;;;8.82;100.00;99467.31;1687828;85;21275;-78
2022/04/24 03:35:51;;;;;;;18.15;13.85;;;;;;;8.84;100.00;99463.88;1687983;85;21188;-77
2022/04/24 03:38:57;;;;;;;17.73;13.72;;;;;;;8.87;100.00;99474.94;1688486;85;21212;-77
2022/04/24 03:41:57;;;;;;;13.88;11.85;;;;;;;8.90;100.00;99479.52;1687891;85;21251;-77
2022/04/24 03:45:08;;;;;;;16.03;12.17;;;;;;;8.95;100.00;99466.16;1689168;85;21797;-77
2022/04/24 03:48:11;;;;;;;16.85;12.90;;;;;;;8.99;100.00;99465.28;1697645;84;21183;-77
2022/04/24 03:51:19;;;;;;;21.87;13.53;;;;;;;9.06;100.00;99468.94;1697461;84;21781;-77
2022/04/24 03:54:24;;;;;;;18.07;12.78;;;;;;;9.15;100.00;99475.16;1697950;84;21212;-78
2022/04/24 03:57:31;;;;;;;16.57;12.18;;;;;;;9.25;100.00;99466.17;1697510;84;21223;-77
2022/04/24 04:00:37;;;;;;;16.00;13.43;;;;;;;9.37;100.00;99471.50;1698844;84;21184;-77
2022/04/24 04:03:42;;;;;;;17.23;12.45;;;;;;;9.50;100.00;99476.27;1697545;84;21390;-77
2022/04/24 04:06:42;;;;;;;18.92;11.78;;;;;;;9.61;100.00;99483.15;1699013;84;21776;-78
2022/04/24 04:09:48;;;;;;;14.35;12.53;;;;;;;9.73;100.00;99481.61;1697935;84;21745;-76
2022/04/24 04:12:55;;;;;;;16.23;12.70;;;;;;;9.85;100.00;99484.71;1697423;84;21272;-78
2022/04/24 04:16:00;;;;;;;15.32;11.38;;;;;;;10.00;100.00;99485.52;1698782;84;21797;-78
2022/04/24 04:19:06;;;;;;;15.70;12.58;;;;;;;10.15;100.00;99496.39;1698864;84;21228;-77
2022/04/24 04:22:12;;;;;;;16.80;10.85;;;;;;;10.33;100.00;99500.09;1697481;84;21231;-77
2022/04/24 04:25:19;;;;;;;15.50;11.33;;;;;;;10.49;100.00;99499.33;1697511;84;21780;-78
2022/04/24 04:28:25;;;;;;;17.12;12.03;;;;;;;10.65;100.00;99500.09;1697869;84;21233;-77
2022/04/24 04:31:31;;;;;;;15.28;11.25;;;;;;;10.70;100.00;99508.55;1697664;84;21184;-78
2022/04/24 04:34:37;;;;;;;14.98;11.33;;;;;;;10.70;100.00;99507.19;1697614;84;21744;-78
2022/04/24 04:37:37;;;;;;;13.10;10.25;;;;;;;10.76;100.00;99494.08;1698244;84;21811;-79
2022/04/24 04:40:42;;;;;;;16.45;11.85;;;;;;;10.87;100.00;99486.73;1697767;84;21212;-78
2022/04/24 04:43:49;;;;;;;16.70;12.37;;;;;;;11.01;100.00;99482.20;1697476;84;21208;-76
2022/04/24 04:46:56;;;;;;;14.80;11.10;;;;;;;11.11;100.00;99486.80;1695452;84;21200;-77
2022/04/24 04:50:03;;;;;;;14.70;11.63;;;;;;;11.24;100.00;99493.73;1689134;85;21770;-78
2022/04/24 04:53:07;;;;;;;11.60;10.30;;;;;;;11.39;100.00;99492.25;1688147;85;21761;-77
2022/04/24 04:56:15;;;;;;;15.38;10.60;;;;;;;11.54;100.00;99501.70;1687675;85;21240;-77
2022/04/24 04:59:21;;;;;;;14.47;10.55;;;;;;;11.69;100.00;99511.15;1687752;85;21193;-77
2022/04/24 05:02:20;;;;;;;12.82;10.10;;;;;;;11.83;100.00;99511.56;1688781;85;21801;-77
2022/04/24 05:05:27;;;;;;;18.02;11.10;;;;;;;11.93;100.00;99520.25;1688950;85;21168;-78
2022/04/24 05:08:33;;;;;;;12.15;9.58;;;;;;;12.02;100.00;99514.91;1687722;85;21865;-78
2022/04/24 05:11:42;;;;;;;13.75;9.33;;;;;;;12.15;100.00;99508.64;1688820;84;21204;-83
2022/04/24 05:14:48;;;;;;;12.45;9.08;;;;;;;12.32;100.00;99506.35;1630654;88;21769;-82
2022/04/24 05:17:55;;;;;;;11.05;8.98;;;;;;;12.41;100.00;99509.75;1682611;85;21295;-83
2022/04/24 05:21:02;;;;;;;13.35;9.83;;;;;;;12.47;99.56;99513.90;1681279;85;21196;-83
2022/04/24 05:24:09;;;;;;;14.25;8.90;;;;;;;12.57;98.79;99503.89;1609204;88;21277;-82
2022/04/24 05:27:15;;;;;;;10.88;8.45;;;;;;;12.69;98.37;99505.47;1675415;85;21277;-82
2022/04/24 05:30:23;;;;;;;13.93;8.30;;;;;;;12.78;97.29;99499.56;1687448;85;21710;-77
2022/04/24 05:33:31;;;;;;;15.70;7.80;;;;;;;12.91;97.15;99501.48;1687661;85;21208;-79
2022/04/24 05:36:38;;;;;;;12.93;8.13;;;;;;;13.05;96.17;99497.67;1630181;87;21200;-79
2022/04/24 05:39:45;;;;;;;10.95;7.72;;;;;;;13.18;95.23;99498.73;1751325;82;21237;-83
2022/04/24 05:42:57;;;;;;;12.10;7.37;;;;;;;13.34;96.08;99499.68;1754001;81;21200;-77
2022/04/24 05:46:03;;;;;;;11.15;6.90;;;;;;;13.48;93.48;99495.84;1751486;82;21153;-77
2022/04/24 05:49:10;;;;;;;10.75;6.60;;;;;;;13.63;92.55;99504.37;1708892;83;21204;-82
2022/04/24 05:52:17;;;;;;;10.20;7.83;;;;;;;13.75;90.22;99499.37;1685700;85;21204;-83
2022/04/24 05:55:25;;;;;;;9.73;6.62;;;;;;;13.85;90.02;99502.20;1717575;82;21812;-82
2022/04/24 05:58:31;;;;;;;11.83;6.70;;;;;;;13.98;89.31;99497.48;1719491;82;21203;-83
2022/04/24 06:01:37;;;;;;;8.03;6.45;;;;;;;14.13;88.77;99494.98;1719387;82;21158;-83
2022/04/24 06:04:44;;;;;;;12.93;6.05;;;;;;;14.32;88.52;99499.00;1719438;83;21154;-82
2022/04/24 06:07:51;;;;;;;9.65;6.67;;;;;;;14.43;86.45;99502.11;1718569;83;21173;-82
2022/04/24 06:10:58;;;;;;;10.03;5.85;;;;;;;14.44;86.12;99492.78;1721228;82;21173;-82
2022/04/24 06:14:04;;;;;;;7.53;5.45;;;;;;;14.53;86.44;99490.11;1719335;83;21173;-82
2022/04/24 06:17:13;;;;;;;13.45;6.05;;;;;;;14.62;85.63;99495.66;1719071;83;21665;-82
2022/04/24 06:20:18;;;;;;;10.78;6.22;;;;;;;14.69;85.57;99497.01;1718686;82;21246;-82
2022/04/24 06:23:18;;;;;;;9.53;5.65;;;;;;;14.74;85.88;99493.89;1718155;83;21191;-82
2022/04/24 06:26:27;;;;;;;10.28;5.12;;;;;;;14.84;84.64;99503.03;1718944;83;21213;-83
2022/04/24 06:29:33;;;;;;;11.48;5.20;;;;;;;14.94;82.50;99503.37;1704339;83;21267;-82
2022/04/24 06:32:41;;;;;;;8.78;5.05;;;;;;;15.01;81.84;99506.92;1699793;83;21315;-83
2022/04/24 06:35:47;;;;;;;10.48;4.85;;;;;;;15.12;81.58;99512.23;1701508;83;21191;-83
2022/04/24 06:38:52;;;;;;;9.28;4.25;;;;;;;15.17;80.92;99515.14;1713115;83;21722;-82
2022/04/24 06:42:02;;;;;;;12.55;5.22;;;;;;;15.26;81.21;99505.53;1701806;84;21248;-82
2022/04/24 06:45:08;;;;;;;8.40;4.70;;;;;;;15.34;79.70;99508.00;1701412;84;21198;-83
2022/04/24 06:48:22;;;;;;;10.55;5.42;;;;;;;15.37;78.49;99501.17;1701957;83;21834;-83
2022/04/24 06:51:29;;;;;;;6.65;4.33;;;;;;;15.43;78.75;99505.80;1703752;83;21189;-84
2022/04/24 06:54:29;;;;;;;15.80;5.03;;;;;;;15.52;78.39;99504.41;1701535;84;21799;-83
2022/04/24 06:57:35;;;;;;;15.10;4.78;;;;;;;15.53;76.70;99506.11;1722883;83;21282;-83
2022/04/24 07:00:42;;;;;;;11.20;5.10;;;;;;;15.62;77.53;99499.77;1702984;83;21162;-84
2022/04/24 07:03:51;;;;;;;8.40;4.70;;;;;;;15.73;76.99;99511.98;1712672;83;21743;-83
2022/04/24 07:06:56;;;;;;;10.58;4.87;;;;;;;15.81;77.13;99515.81;1703478;83;21225;-84
2022/04/24 07:10:04;;;;;;;11.93;4.75;;;;;;;15.90;77.96;99514.41;1711992;83;21812;-83
2022/04/24 07:13:12;;;;;;;9.53;4.85;;;;;;;15.98;77.97;99514.64;1711153;83;21242;-84
2022/04/24 07:16:20;;;;;;;8.90;4.75;;;;;;;16.09;78.01;99515.23;1708303;83;21183;-82
2022/04/24 07:19:25;;;;;;;7.37;4.28;;;;;;;16.17;77.78;99520.98;1731027;83;21180;-83
2022/04/24 07:22:32;;;;;;;12.33;4.80;;;;;;;16.26;78.37;99525.11;1730437;83;21244;-83
2022/04/24 07:25:44;;;;;;;10.00;4.92;;;;;;;16.33;77.12;99532.24;1729853;83;21204;-83
2022/04/24 07:28:50;;;;;;;12.60;4.97;;;;;;;16.41;76.84;99527.45;1719917;82;21187;-82
2022/04/24 07:31:57;;;;;;;9.43;4.45;;;;;;;16.43;75.60;99523.95;1691390;85;21210;-83
2022/04/24 07:35:04;;;;;;;12.82;5.08;;;;;;;16.45;75.78;99521.23;1690115;85;21699;-83
2022/04/24 07:38:10;;;;;;;12.53;5.08;;;;;;;16.42;75.47;99526.38;1719479;82;21250;-83
2022/04/24 07:41:15;;;;;;;12.55;4.90;;;;;;;16.32;74.59;99522.80;1712497;83;21188;-83
2022/04/24 07:44:22;;;;;;;11.20;4.22;;;;;;;16.29;75.46;99521.36;1710780;84;21191;-83
2022/04/24 07:47:28;;;;;;;11.20;4.87;;;;;;;16.40;75.38;99514.20;1711553;84;21213;-82
2022/04/24 07:50:37;;;;;;;9.85;4.45;;;;;;;16.50;74.87;99511.72;1712548;82;21285;-83
2022/04/24 07:53:44;;;;;;;13.28;4.60;;;;;;;16.59;71.77;99511.69;1748987;80;21776;-84
2022/04/24 07:56:51;;;;;;;15.35;4.90;;;;;;;16.66;72.45;99508.02;1745881;82;21208;-83
2022/04/24 07:59:56;;;;;;;19.90;5.08;;;;;;;16.75;72.04;99514.88;1763877;80;21628;-83
2022/04/24 08:03:09;;;;;;;16.63;5.10;;;;;;;16.83;70.75;99521.45;1775062;80;21200;-83
2022/04/24 08:06:17;;;;;;;10.30;5.20;;;;;;;16.92;71.47;99521.42;1750867;81;21158;-83
2022/04/24 08:09:22;;;;;;;14.83;5.92;;;;;;;17.04;70.81;99524.22;1768999;80;21141;-82
2022/04/24 08:12:29;;;;;;;12.47;4.45;;;;;;;17.18;71.81;99524.30;1777638;80;21204;-82
2022/04/24 08:15:34;;;;;;;13.15;4.92;;;;;;;17.23;71.92;99526.35;1777788;80;21192;-83
2022/04/24 08:18:41;;;;;;;14.98;4.97;;;;;;;17.16;70.37;99524.23;1773120;80;21200;-83
2022/04/24 08:21:46;;;;;;;15.68;5.78;;;;;;;17.15;72.26;99515.64;1772805;81;21220;-83
2022/04/24 08:24:53;;;;;;;16.12;5.72;;;;;;;17.24;71.28;99519.73;1773661;81;21161;-83
2022/04/24 08:28:02;;;;;;;12.55;5.25;;;;;;;17.33;71.54;99527.44;1772301;81;21169;-82
2022/04/24 08:31:07;;;;;;;17.90;5.40;;;;;;;17.34;69.18;99531.88;1768901;80;21239;-82
2022/04/24 08:34:13;;;;;;;22.77;6.20;;;;;;;17.34;69.01;99531.03;1773854;81;21396;-82
2022/04/24 08:37:19;;;;;;;15.05;5.17;;;;;;;17.38;69.64;99539.16;1757544;81;21757;-83
2022/04/24 08:40:26;;;;;;;11.45;5.45;;;;;;;17.44;70.22;99533.20;1762121;80;21744;-82
2022/04/24 08:43:33;;;;;;;14.68;5.72;;;;;;;17.50;71.55;99537.25;1747791;80;21219;-82
2022/04/24 08:46:40;;;;;;;17.82;5.92;;;;;;;17.54;70.12;99538.42;1748638;81;21729;-79
2022/04/24 08:49:47;;;;;;;13.95;5.65;;;;;;;17.53;71.26;99531.77;1753348;80;21780;-83
2022/04/24 08:52:53;;;;;;;9.20;4.83;;;;;;;17.55;70.93;99529.59;1764071;80;21176;-79
2022/04/24 08:56:00;;;;;;;11.00;5.20;;;;;;;17.60;71.29;99531.95;1756151;80;21168;-79
2022/04/24 08:59:08;;;;;;;10.82;4.50;;;;;;;17.67;71.11;99536.52;1732015;82;21172;-79
2022/04/24 09:02:15;;;;;;;18.02;4.97;;;;;;;17.71;70.03;99537.17;1693991;84;21177;-83
2022/04/24 09:05:22;;;;;;;11.78;4.45;;;;;;;17.65;69.58;99540.07;1773447;80;21168;-83
2022/04/24 09:08:32;;;;;;;15.58;5.45;;;;;;;17.58;69.54;99533.27;1772307;81;21212;-83
2022/04/24 09:11:39;;;;;;;14.65;5.05;;;;;;;17.52;69.58;99529.54;1767836;81;21247;-83
2022/04/24 09:14:46;;;;;;;15.00;5.22;;;;;;;17.58;71.81;99538.80;1772648;80;21168;-83
2022/04/24 09:17:52;;;;;;;14.90;5.25;;;;;;;17.69;72.82;99535.71;1772548;81;21173;-83
2022/04/24 09:21:03;;;;;;;20.27;5.75;;;;;;;17.79;71.49;99533.23;1760900;81;21173;-83
2022/04/24 09:24:09;;;;;;;12.18;4.97;;;;;;;17.81;71.04;99534.66;1771729;81;21169;-83
2022/04/24 09:27:15;;;;;;;12.68;5.45;;;;;;;17.90;71.60;99535.14;1768850;81;21228;-83
2022/04/24 09:30:26;;;;;;;13.20;5.05;;;;;;;17.99;71.08;99536.44;1759654;81;21161;-83
2022/04/24 09:33:32;;;;;;;15.18;4.95;;;;;;;18.04;70.23;99533.78;1772169;81;21204;-83
2022/04/24 09:36:34;;;;;;;18.60;5.35;;;;;;;18.09;70.54;99529.73;1750468;82;21211;-83
2022/04/24 09:39:42;;;;;;;17.50;6.12;;;;;;;18.16;71.49;99529.63;1754763;80;21702;-82
2022/04/24 09:43:01;;;;;;;21.10;5.53;;;;;;;18.20;69.96;99534.94;1759686;81;21181;-83
2022/04/24 09:46:08;;;;;;;16.07;5.87;;;;;;;18.23;70.12;99525.31;1740899;81;21792;-83
2022/04/24 09:49:17;;;;;;;13.72;5.53;;;;;;;18.29;69.69;99535.40;1743992;81;21205;-82
2022/04/24 09:52:27;;;;;;;15.90;5.58;;;;;;;18.28;71.30;99530.41;1742631;81;21192;-83
2022/04/24 09:55:34;;;;;;;18.67;5.85;;;;;;;18.38;71.74;99523.69;1740351;82;21176;-83
2022/04/24 09:58:39;;;;;;;10.15;5.05;;;;;;;18.51;71.16;99519.80;1743574;81;21227;-83
2022/04/24 10:01:45;;;;;;;13.68;5.75;;;;;;;18.62;71.28;99528.58;1753076;80;21219;-83
2022/04/24 10:04:53;;;;;;;17.55;5.75;;;;;;;18.66;68.78;99537.25;1739594;81;21172;-77
2022/04/24 10:08:01;;;;;;;16.67;5.12;;;;;;;18.72;69.72;99531.28;1769475;81;21220;-79
2022/04/24 10:11:13;;;;;;;15.25;5.12;;;;;;;18.79;69.36;99538.36;1748147;81;22099;-79
2022/04/24 10:14:22;;;;;;;11.22;4.95;;;;;;;19.00;70.14;99536.78;1743501;80;21228;-79
2022/04/24 10:17:57;;;;;;;14.60;5.37;;;;;;;19.14;69.56;99535.37;1749783;81;21214;-79
2022/04/24 10:21:40;;;;;;;17.07;6.25;;;;;;;19.20;66.74;99536.32;1742524;81;21204;-79
2022/04/24 10:24:51;;;;;;;15.80;5.45;;;;;;;19.05;65.69;99539.64;1740324;81;21734;-79
2022/04/24 10:27:57;;;;;;;22.17;6.40;;;;;;;19.05;67.42;99534.10;1742314;81;21247;-79
2022/04/24 10:31:09;;;;;;;17.10;6.30;;;;;;;19.16;68.57;99536.53;1743623;81;21708;-77
2022/04/24 10:34:16;;;;;;;19.20;6.55;;;;;;;19.22;67.49;99533.29;1739344;82;21798;-78
2022/04/24 10:37:22;;;;;;;15.08;6.58;;;;;;;19.17;65.87;99533.20;1751880;81;21181;-78
2022/04/24 10:40:29;;;;;;;22.10;7.05;;;;;;;19.08;65.34;99534.16;1756637;80;21721;-78
2022/04/24 10:43:48;;;;;;;23.10;7.10;;;;;;;19.02;66.35;99537.39;1740595;82;21225;-78
2022/04/24 10:46:57;;;;;;;17.40;6.50;;;;;;;19.06;67.42;99533.58;1752139;81;21261;-79
2022/04/24 10:50:13;;;;;;;21.93;7.72;;;;;;;19.01;65.39;99543.20;1767351;81;21156;-78
2022/04/24 10:53:18;;;;;;;20.82;7.42;;;;;;;18.85;66.01;99539.29;1765791;81;21753;-79
2022/04/24 10:56:24;;;;;;;21.57;7.78;;;;;;;18.81;68.69;99546.41;1765999;81;21155;-78
2022/04/24 10:59:32;;;;;;;22.62;7.92;;;;;;;18.77;69.80;99545.23;1739446;81;21212;-79
2022/04/24 11:02:39;;;;;;;24.87;8.28;;;;;;;18.81;69.37;99545.86;1738186;81;21244;-79
2022/04/24 11:05:49;;;;;;;19.67;8.03;;;;;;;18.90;68.85;99543.54;1759530;81;21181;-79
2022/04/24 11:08:54;;;;;;;23.15;8.05;;;;;;;19.00;69.08;99547.03;1740698;81;21157;-79
2022/04/24 11:12:08;;;;;;;19.92;7.85;;;;;;;19.04;68.34;99543.52;1737297;81;21186;-79
2022/04/24 11:15:22;;;;;;;21.17;6.53;;;;;;;19.19;68.33;99536.00;1735679;82;21178;-79
2022/04/24 11:18:31;;;;;;;15.32;6.22;;;;;;;19.20;65.98;99539.09;1735928;82;21179;-79
2022/04/24 11:21:37;;;;;;;18.45;5.72;;;;;;;19.17;65.72;99541.52;1738761;81;21190;-79
2022/04/24 11:24:45;;;;;;;14.68;5.37;;;;;;;19.15;65.93;99539.84;1714882;82;21767;-78
2022/04/24 11:27:52;;;;;;;14.63;6.20;;;;;;;19.18;66.24;99537.09;1735906;82;21221;-79
2022/04/24 11:30:58;;;;;;;16.45;5.60;;;;;;;19.14;65.74;99535.37;1735959;82;21175;-78
2022/04/24 11:34:06;;;;;;;14.38;5.33;;;;;;;19.06;66.11;99537.19;1737644;81;21260;-78
2022/04/24 11:37:11;;;;;;;15.95;5.83;;;;;;;18.94;65.71;99541.11;1736545;82;21222;-78
2022/04/24 11:40:19;;;;;;;12.95;5.58;;;;;;;18.86;65.95;99538.19;1736278;81;21231;-79
2022/04/24 11:43:26;;;;;;;11.50;4.67;;;;;;;18.81;65.88;99534.78;1735577;82;21236;-79
2022/04/24 11:50:16;;;;;;;14.28;5.20;;;;;;;18.69;66.46;99526.26;1735531;82;21294;-79
2022/04/24 11:53:28;;;;;;;16.87;5.12;;;;;;;18.71;67.49;99530.99;1736819;82;21184;-78
2022/04/24 11:56:33;;;;;;;12.68;4.62;;;;;;;18.80;67.34;99529.50;1737037;82;21232;-78
2022/04/24 11:59:40;;;;;;;16.97;5.53;;;;;;;18.95;67.25;99531.16;1736780;82;21173;-79
2022/04/24 12:02:46;;;;;;;14.23;5.17;;;;;;;19.12;64.82;99525.64;1735737;82;21224;-78
2022/04/24 12:05:53;;;;;;;13.32;5.25;;;;;;;19.20;64.53;99529.94;1715193;82;21169;-79
2022/04/24 12:09:00;;;;;;;14.85;5.40;;;;;;;19.22;63.76;99536.06;1715147;82;21169;-79
2022/04/24 12:12:17;;;;;;;13.30;5.22;;;;;;;19.18;64.36;99542.64;1735670;82;21244;-79
2022/04/24 12:15:31;;;;;;;13.60;5.58;;;;;;;19.13;63.81;99537.85;1737063;82;21228;-79
2022/04/24 12:18:37;;;;;;;16.62;5.65;;;;;;;19.11;63.44;99538.66;1737213;82;21201;-82
2022/04/24 12:21:58;;;;;;;11.57;5.40;;;;;;;19.07;63.87;99539.41;1735436;82;21185;-83
2022/04/24 12:25:18;;;;;;;;;;;;;;;19.06;63.44;99546.89;1738393;81;21733;-83
2022/04/24 12:28:44;;;;;;;17.85;6.90;;;;;;;19.04;63.05;99542.13;1732189;82;20609;-83
2022/04/24 12:31:53;;;;;;;12.25;6.75;;;;;;;18.96;63.33;99549.48;1737144;82;21209;-83
2022/04/24 12:34:59;;;;;;;12.35;6.17;;;;;;;18.91;63.83;99552.14;1735589;82;21228;-83
2022/04/24 12:38:06;;;;;;;18.07;7.37;;;;;;;18.90;64.23;99552.69;1735768;82;21265;-83
2022/04/24 12:41:18;;;;;;;16.25;7.25;;;;;;;18.83;63.91;99563.09;1735739;82;21181;-82
2022/04/24 12:44:25;;;;;;;24.67;7.35;;;;;;;18.70;64.12;99559.79;1736750;82;21220;-83
2022/04/24 12:47:33;;;;;;;18.23;6.53;;;;;;;18.55;64.81;99568.06;1736426;82;21761;-83
2022/04/24 12:50:39;;;;;;;20.55;7.17;;;;;;;18.51;65.64;99568.25;1735944;82;21825;-82
2022/04/24 12:53:46;;;;;;;13.35;6.28;;;;;;;18.48;64.73;99571.50;1735741;82;21822;-83
2022/04/24 12:56:52;;;;;;;12.43;5.85;;;;;;;18.46;66.06;99584.77;1736823;82;21192;-83
2022/04/24 12:59:58;;;;;;;16.95;6.50;;;;;;;18.47;67.24;99589.21;1735765;82;21201;-82
2022/04/24 13:03:04;;;;;;;14.50;5.87;;;;;;;18.46;66.36;99584.77;1736060;82;21216;-82
2022/04/24 13:06:10;;;;;;;14.80;5.75;;;;;;;18.42;66.63;99586.89;1735545;82;21220;-83
2022/04/24 13:09:18;;;;;;;19.25;7.00;;;;;;;18.43;66.39;99594.94;1735636;82;21753;-82
2022/04/24 13:12:24;;;;;;;16.45;6.37;;;;;;;18.41;66.39;99597.67;1735437;82;21802;-83
2022/04/24 13:15:33;;;;;;;17.32;6.00;;;;;;;18.36;66.70;99605.33;1735533;82;21275;-83
2022/04/24 13:18:39;;;;;;;17.35;6.75;;;;;;;18.27;66.68;99606.78;1735586;82;21824;-83
2022/04/24 13:21:45;;;;;;;15.03;6.85;;;;;;;18.14;67.55;99605.95;1735618;82;21189;-82
2022/04/24 13:24:52;;;;;;;18.37;6.87;;;;;;;17.99;68.10;99615.84;1735594;82;21176;-82
2022/04/24 13:27:59;;;;;;;19.07;6.20;;;;;;;17.87;68.81;99617.22;1735579;82;21219;-83
2022/04/24 13:31:05;;;;;;;18.80;7.30;;;;;;;17.82;68.73;99609.64;1716392;82;21619;-83
2022/04/24 13:34:10;;;;;;;13.88;6.12;;;;;;;17.75;69.09;99627.45;1735776;82;21228;-83
2022/04/24 13:40:40;;;;;;;15.65;6.33;;;;;;;17.38;70.86;99632.59;1737058;82;21758;-82
2022/04/24 13:43:46;;;;;;;20.82;6.00;;;;;;;17.14;71.88;99639.14;1735592;82;21836;-82
2022/04/24 13:46:52;;;;;;;19.42;6.17;;;;;;;16.98;72.17;99641.17;1741995;80;21180;-83
2022/04/24 13:49:58;;;;;;;13.10;5.62;;;;;;;16.79;72.72;99644.52;1751787;82;21163;-79
2022/04/24 13:53:07;;;;;;;12.68;5.30;;;;;;;16.63;73.39;99647.36;1752390;82;21195;-78
2022/04/24 13:56:12;;;;;;;13.72;5.40;;;;;;;16.52;73.61;99648.98;1753382;82;21232;-78
2022/04/24 13:59:18;;;;;;;18.05;6.03;;;;;;;16.35;73.79;99649.28;1752146;82;21765;-78
2022/04/24 14:02:26;;;;;;;13.25;6.08;;;;;;;16.20;75.43;99646.07;1752862;82;21243;-78
2022/04/24 14:05:33;;;;;;;16.02;6.25;;;;;;;16.04;75.51;99648.36;1752092;81;21172;-78
2022/04/24 14:08:40;;;;;;;17.77;6.75;;;;;;;15.86;75.97;99653.84;1752091;82;21207;-78
2022/04/24 14:11:47;;;;;;;17.62;6.42;;;;;;;15.65;76.36;99652.32;1753234;82;21215;-78
2022/04/24 14:14:54;;;;;;;19.87;6.97;;;;;;;15.53;78.33;99659.08;1752055;81;21172;-78
2022/04/24 14:18:03;;;;;;;17.60;6.00;;;;;;;15.40;77.35;99661.09;1751979;82;21195;-79
2022/04/24 14:21:08;;;;;;;16.80;6.58;;;;;;;15.27;78.09;99662.03;1753050;82;21745;-79
2022/04/24 14:24:16;;;;;;;17.87;6.97;;;;;;;15.14;78.63;99663.48;1751894;82;21168;-78
2022/04/24 14:27:22;;;;;;;15.32;5.58;;;;;;;15.01;78.48;99671.31;1751919;81;21237;-78
2022/04/24 14:30:29;;;;;;;22.75;7.03;;;;;;;14.89;79.15;99675.28;1753442;82;21176;-78
2022/04/24 14:33:36;;;;;;;18.50;7.10;;;;;;;14.78;79.75;99680.11;1752230;82;21208;-79